sensor_id;sensor_type;location;lat;lon;timestamp;pressure;altitude;pressure_sealevel;temperature;humidity
27144;BME280;14672;50.250;8.312;2023-12-22T00:02:21;97365.06;;;8.36;70.01
27144;BME280;14672;50.250;8.312;2023-12-22T00:04:48;97362.16;;;8.45;69.55
27144;BME280;14672;50.250;8.312;2023-12-22T00:07:14;97377.69;;;8.49;69.62
27144;BME280;14672;50.250;8.312;2023-12-22T00:09:43;97382.38;;;8.53;69.66
27144;BME280;14672;50.250;8.312;2023-12-22T00:12:09;97376.91;;;8.49;69.75
27144;BME280;14672;50.250;8.312;2023-12-22T00:14:34;97357.53;;;8.57;69.94
27144;BME280;14672;50.250;8.312;2023-12-22T00:17:07;97374.44;;;8.66;70.31
27144;BME280;14672;50.250;8.312;2023-12-22T00:19:33;97381.50;;;8.46;70.72
27144;BME280;14672;50.250;8.312;2023-12-22T00:22:01;97376.44;;;8.51;70.58
27144;BME280;14672;50.250;8.312;2023-12-22T00:24:29;97354.22;;;8.34;71.11
27144;BME280;14672;50.250;8.312;2023-12-22T00:26:55;97348.75;;;8.31;70.75
27144;BME280;14672;50.250;8.312;2023-12-22T00:29:20;97370.59;;;8.54;70.09
27144;BME280;14672;50.250;8.312;2023-12-22T00:31:46;97358.31;;;8.57;70.14
27144;BME280;14672;50.250;8.312;2023-12-22T00:34:12;97364.63;;;8.52;70.47
27144;BME280;14672;50.250;8.312;2023-12-22T00:36:38;97368.13;;;8.71;70.21
27144;BME280;14672;50.250;8.312;2023-12-22T00:39:03;97354.94;;;8.68;70.16
27144;BME280;14672;50.250;8.312;2023-12-22T00:41:29;97355.56;;;8.72;69.75
27144;BME280;14672;50.250;8.312;2023-12-22T00:43:55;97361.03;;;8.75;69.72
27144;BME280;14672;50.250;8.312;2023-12-22T00:46:21;97355.38;;;8.75;69.94
27144;BME280;14672;50.250;8.312;2023-12-22T00:48:46;97348.91;;;8.75;69.93
27144;BME280;14672;50.250;8.312;2023-12-22T00:51:12;97338.78;;;8.83;70.18
27144;BME280;14672;50.250;8.312;2023-12-22T00:53:38;97346.97;;;8.81;70.18
27144;BME280;14672;50.250;8.312;2023-12-22T00:56:04;97339.72;;;8.80;69.85
27144;BME280;14672;50.250;8.312;2023-12-22T00:58:30;97349.59;;;8.84;69.73
27144;BME280;14672;50.250;8.312;2023-12-22T01:00:56;97352.97;;;8.98;69.37
27144;BME280;14672;50.250;8.312;2023-12-22T01:03:22;97362.63;;;8.91;69.37
27144;BME280;14672;50.250;8.312;2023-12-22T01:05:48;97372.19;;;8.93;69.48
27144;BME280;14672;50.250;8.312;2023-12-22T01:08:13;97352.84;;;8.92;69.44
27144;BME280;14672;50.250;8.312;2023-12-22T01:10:39;97417.94;;;8.77;69.69
27144;BME280;14672;50.250;8.312;2023-12-22T01:13:05;97489.25;;;8.67;68.72
27144;BME280;14672;50.250;8.312;2023-12-22T01:15:30;97487.06;;;8.29;64.90
27144;BME280;14672;50.250;8.312;2023-12-22T01:17:56;97502.53;;;7.91;64.50
27144;BME280;14672;50.250;8.312;2023-12-22T01:20:22;97499.91;;;7.79;65.56
27144;BME280;14672;50.250;8.312;2023-12-22T01:22:47;97494.56;;;7.72;65.94
27144;BME280;14672;50.250;8.312;2023-12-22T01:25:13;97481.19;;;7.81;65.17
27144;BME280;14672;50.250;8.312;2023-12-22T01:27:39;97479.16;;;7.73;65.81
27144;BME280;14672;50.250;8.312;2023-12-22T01:30:06;97498.03;;;7.76;65.91
27144;BME280;14672;50.250;8.312;2023-12-22T01:32:31;97482.94;;;7.61;66.52
27144;BME280;14672;50.250;8.312;2023-12-22T01:35:00;97477.16;;;7.64;66.38
27144;BME280;14672;50.250;8.312;2023-12-22T01:37:30;97476.38;;;7.64;67.06
27144;BME280;14672;50.250;8.312;2023-12-22T01:39:55;97484.53;;;7.62;66.76
27144;BME280;14672;50.250;8.312;2023-12-22T01:42:21;97508.53;;;7.57;67.03
27144;BME280;14672;50.250;8.312;2023-12-22T01:44:47;97503.53;;;7.52;68.39
27144;BME280;14672;50.250;8.312;2023-12-22T01:47:13;97504.16;;;7.56;67.98
27144;BME280;14672;50.250;8.312;2023-12-22T01:49:40;97499.13;;;7.51;67.71
27144;BME280;14672;50.250;8.312;2023-12-22T01:52:09;97493.81;;;7.44;67.84
27144;BME280;14672;50.250;8.312;2023-12-22T01:54:35;97495.06;;;7.52;67.46
27144;BME280;14672;50.250;8.312;2023-12-22T01:57:01;97501.63;;;7.22;68.59
27144;BME280;14672;50.250;8.312;2023-12-22T01:59:28;97493.66;;;7.20;69.01
27144;BME280;14672;50.250;8.312;2023-12-22T02:01:56;97497.72;;;7.19;68.77
27144;BME280;14672;50.250;8.312;2023-12-22T02:04:23;97498.66;;;7.34;69.29
27144;BME280;14672;50.250;8.312;2023-12-22T02:06:49;97501.50;;;7.43;68.46
27144;BME280;14672;50.250;8.312;2023-12-22T02:09:16;97480.59;;;7.41;69.03
27144;BME280;14672;50.250;8.312;2023-12-22T02:11:44;97469.63;;;7.43;68.69
27144;BME280;14672;50.250;8.312;2023-12-22T02:14:10;97470.09;;;7.41;68.98
27144;BME280;14672;50.250;8.312;2023-12-22T02:16:49;97459.75;;;7.47;69.01
27144;BME280;14672;50.250;8.312;2023-12-22T02:22:15;97470.25;;;7.56;69.04
27144;BME280;14672;50.250;8.312;2023-12-22T02:24:42;97471.34;;;7.68;69.15
27144;BME280;14672;50.250;8.312;2023-12-22T02:27:50;97468.97;;;7.66;69.23
27144;BME280;14672;50.250;8.312;2023-12-22T02:30:32;97483.28;;;7.63;69.09
27144;BME280;14672;50.250;8.312;2023-12-22T02:33:05;97479.78;;;7.77;68.93
27144;BME280;14672;50.250;8.312;2023-12-22T02:35:36;97473.50;;;7.73;69.08
27144;BME280;14672;50.250;8.312;2023-12-22T02:38:04;97460.16;;;7.82;69.33
27144;BME280;14672;50.250;8.312;2023-12-22T02:40:31;97461.56;;;7.78;69.66
27144;BME280;14672;50.250;8.312;2023-12-22T02:42:57;97439.28;;;7.71;69.79
27144;BME280;14672;50.250;8.312;2023-12-22T02:45:23;97452.28;;;7.86;69.66
27144;BME280;14672;50.250;8.312;2023-12-22T02:47:49;97451.81;;;7.88;69.59
27144;BME280;14672;50.250;8.312;2023-12-22T02:50:16;97439.38;;;7.94;69.70
27144;BME280;14672;50.250;8.312;2023-12-22T02:52:42;97437.34;;;7.95;69.91
27144;BME280;14672;50.250;8.312;2023-12-22T02:55:08;97438.44;;;7.97;69.95
27144;BME280;14672;50.250;8.312;2023-12-22T02:57:34;97440.00;;;7.98;69.24
27144;BME280;14672;50.250;8.312;2023-12-22T03:00:01;97432.59;;;8.01;69.90
27144;BME280;14672;50.250;8.312;2023-12-22T03:02:27;97436.38;;;8.07;70.17
27144;BME280;14672;50.250;8.312;2023-12-22T03:04:52;97447.78;;;8.13;69.70
27144;BME280;14672;50.250;8.312;2023-12-22T03:07:18;97445.75;;;8.13;70.12
27144;BME280;14672;50.250;8.312;2023-12-22T03:09:44;97437.00;;;8.02;70.43
27144;BME280;14672;50.250;8.312;2023-12-22T03:12:10;97445.72;;;8.22;70.15
27144;BME280;14672;50.250;8.312;2023-12-22T03:14:36;97433.63;;;8.22;70.01
27144;BME280;14672;50.250;8.312;2023-12-22T03:17:05;97418.84;;;8.27;70.22
27144;BME280;14672;50.250;8.312;2023-12-22T03:19:32;97428.75;;;8.22;70.10
27144;BME280;14672;50.250;8.312;2023-12-22T03:21:59;97437.38;;;8.28;70.04
27144;BME280;14672;50.250;8.312;2023-12-22T03:24:26;97431.88;;;8.33;69.72
27144;BME280;14672;50.250;8.312;2023-12-22T03:26:54;97429.34;;;8.35;70.01
27144;BME280;14672;50.250;8.312;2023-12-22T03:29:20;97431.94;;;8.48;69.52
27144;BME280;14672;50.250;8.312;2023-12-22T03:31:46;97438.78;;;8.32;70.59
27144;BME280;14672;50.250;8.312;2023-12-22T03:34:13;97467.56;;;8.22;70.57
27144;BME280;14672;50.250;8.312;2023-12-22T03:36:39;97452.00;;;8.26;70.46
27144;BME280;14672;50.250;8.312;2023-12-22T03:39:05;97449.16;;;8.26;70.49
27144;BME280;14672;50.250;8.312;2023-12-22T03:41:31;97448.28;;;8.11;71.36
27144;BME280;14672;50.250;8.312;2023-12-22T03:43:57;97428.91;;;8.28;70.54
27144;BME280;14672;50.250;8.312;2023-12-22T03:46:24;97419.59;;;8.36;70.21
27144;BME280;14672;50.250;8.312;2023-12-22T03:48:53;97431.78;;;8.52;70.41
27144;BME280;14672;50.250;8.312;2023-12-22T03:51:19;97419.50;;;8.55;70.28
27144;BME280;14672;50.250;8.312;2023-12-22T03:53:44;97411.84;;;8.46;69.87
27144;BME280;14672;50.250;8.312;2023-12-22T03:56:10;97415.41;;;8.56;69.42
27144;BME280;14672;50.250;8.312;2023-12-22T03:58:37;97403.31;;;8.55;69.44
27144;BME280;14672;50.250;8.312;2023-12-22T04:01:04;97410.84;;;8.58;69.41
27144;BME280;14672;50.250;8.312;2023-12-22T04:03:30;97418.16;;;8.65;68.94
27144;BME280;14672;50.250;8.312;2023-12-22T04:05:56;97399.38;;;8.53;69.87
27144;BME280;14672;50.250;8.312;2023-12-22T04:08:21;97412.50;;;8.65;69.34
27144;BME280;14672;50.250;8.312;2023-12-22T04:10:47;97416.63;;;8.64;69.14
27144;BME280;14672;50.250;8.312;2023-12-22T04:13:14;97410.66;;;8.62;69.10
27144;BME280;14672;50.250;8.312;2023-12-22T04:15:40;97414.97;;;8.48;69.07
27144;BME280;14672;50.250;8.312;2023-12-22T04:18:06;97423.34;;;8.42;69.49
27144;BME280;14672;50.250;8.312;2023-12-22T04:20:31;97442.97;;;8.46;69.04
27144;BME280;14672;50.250;8.312;2023-12-22T04:22:58;97452.53;;;8.48;69.13
27144;BME280;14672;50.250;8.312;2023-12-22T04:25:23;97431.44;;;8.59;68.56
27144;BME280;14672;50.250;8.312;2023-12-22T04:27:53;97442.56;;;8.62;70.06
27144;BME280;14672;50.250;8.312;2023-12-22T04:30:19;97431.53;;;8.64;69.38
27144;BME280;14672;50.250;8.312;2023-12-22T04:32:45;97436.19;;;8.76;68.53
27144;BME280;14672;50.250;8.312;2023-12-22T04:35:10;97434.09;;;8.86;68.39
27144;BME280;14672;50.250;8.312;2023-12-22T04:37:36;97426.84;;;8.85;68.68
27144;BME280;14672;50.250;8.312;2023-12-22T04:40:02;97426.56;;;8.83;69.33
27144;BME280;14672;50.250;8.312;2023-12-22T04:42:29;97441.78;;;8.85;69.24
27144;BME280;14672;50.250;8.312;2023-12-22T04:44:55;97439.56;;;8.66;69.46
27144;BME280;14672;50.250;8.312;2023-12-22T04:47:21;97440.13;;;8.79;69.10
27144;BME280;14672;50.250;8.312;2023-12-22T04:49:47;97434.13;;;8.77;68.78
27144;BME280;14672;50.250;8.312;2023-12-22T04:52:12;97443.06;;;8.84;69.31
27144;BME280;14672;50.250;8.312;2023-12-22T04:54:38;97420.22;;;8.88;69.26
27144;BME280;14672;50.250;8.312;2023-12-22T04:57:04;97458.22;;;8.96;69.01
27144;BME280;14672;50.250;8.312;2023-12-22T04:59:31;97445.53;;;8.91;69.23
27144;BME280;14672;50.250;8.312;2023-12-22T05:01:57;97454.69;;;8.86;68.02
27144;BME280;14672;50.250;8.312;2023-12-22T05:04:23;97475.47;;;8.83;67.08
27144;BME280;14672;50.250;8.312;2023-12-22T05:06:48;97481.78;;;8.78;67.21
27144;BME280;14672;50.250;8.312;2023-12-22T05:09:15;97460.59;;;8.74;67.76
27144;BME280;14672;50.250;8.312;2023-12-22T05:11:42;97462.25;;;8.80;68.07
27144;BME280;14672;50.250;8.312;2023-12-22T05:14:08;97477.72;;;9.03;67.96
27144;BME280;14672;50.250;8.312;2023-12-22T05:16:34;97456.25;;;8.87;68.29
27144;BME280;14672;50.250;8.312;2023-12-22T05:19:00;97474.94;;;8.94;68.02
27144;BME280;14672;50.250;8.312;2023-12-22T05:21:26;97474.88;;;9.03;67.32
27144;BME280;14672;50.250;8.312;2023-12-22T05:23:56;97466.84;;;9.02;67.25
27144;BME280;14672;50.250;8.312;2023-12-22T05:26:22;97475.41;;;8.92;67.11
27144;BME280;14672;50.250;8.312;2023-12-22T05:28:48;97460.00;;;8.93;67.37
27144;BME280;14672;50.250;8.312;2023-12-22T05:31:17;97475.16;;;9.05;66.87
27144;BME280;14672;50.250;8.312;2023-12-22T05:33:44;97458.53;;;8.98;67.30
27144;BME280;14672;50.250;8.312;2023-12-22T05:36:10;97457.50;;;9.10;67.06
27144;BME280;14672;50.250;8.312;2023-12-22T05:38:39;97459.19;;;9.17;66.89
27144;BME280;14672;50.250;8.312;2023-12-22T05:41:06;97445.81;;;9.17;67.14
27144;BME280;14672;50.250;8.312;2023-12-22T05:43:33;97451.47;;;9.17;66.87
27144;BME280;14672;50.250;8.312;2023-12-22T05:46:01;97454.88;;;9.07;66.87
27144;BME280;14672;50.250;8.312;2023-12-22T05:48:27;97455.28;;;9.14;66.66
27144;BME280;14672;50.250;8.312;2023-12-22T05:50:56;97467.50;;;9.20;66.75
27144;BME280;14672;50.250;8.312;2023-12-22T05:53:22;97482.19;;;9.33;66.43
27144;BME280;14672;50.250;8.312;2023-12-22T05:55:48;97474.19;;;9.08;66.35
27144;BME280;14672;50.250;8.312;2023-12-22T05:58:14;97486.00;;;9.30;66.25
27144;BME280;14672;50.250;8.312;2023-12-22T06:00:40;97474.38;;;9.28;66.11
27144;BME280;14672;50.250;8.312;2023-12-22T06:03:05;97469.00;;;9.30;65.84
27144;BME280;14672;50.250;8.312;2023-12-22T06:05:31;97473.88;;;9.30;65.98
27144;BME280;14672;50.250;8.312;2023-12-22T06:07:57;97476.84;;;9.35;65.94
27144;BME280;14672;50.250;8.312;2023-12-22T06:10:23;97475.19;;;9.43;66.06
27144;BME280;14672;50.250;8.312;2023-12-22T06:12:48;97470.59;;;9.31;66.15
27144;BME280;14672;50.250;8.312;2023-12-22T06:15:14;97467.25;;;9.33;65.66
27144;BME280;14672;50.250;8.312;2023-12-22T06:17:40;97490.50;;;9.37;65.91
27144;BME280;14672;50.250;8.312;2023-12-22T06:20:06;97477.00;;;9.32;65.46
27144;BME280;14672;50.250;8.312;2023-12-22T06:22:32;97485.41;;;9.26;65.64
27144;BME280;14672;50.250;8.312;2023-12-22T06:24:58;97514.59;;;9.18;65.47
27144;BME280;14672;50.250;8.312;2023-12-22T06:27:24;97486.38;;;9.23;65.85
27144;BME280;14672;50.250;8.312;2023-12-22T06:29:50;97502.41;;;9.26;65.91
27144;BME280;14672;50.250;8.312;2023-12-22T06:32:16;97498.38;;;9.18;65.64
27144;BME280;14672;50.250;8.312;2023-12-22T06:34:42;97518.66;;;9.40;65.61
27144;BME280;14672;50.250;8.312;2023-12-22T06:37:08;97523.28;;;9.14;65.65
27144;BME280;14672;50.250;8.312;2023-12-22T06:39:36;97506.84;;;9.42;65.35
27144;BME280;14672;50.250;8.312;2023-12-22T06:42:02;97512.56;;;9.57;65.05
27144;BME280;14672;50.250;8.312;2023-12-22T06:44:29;97526.44;;;9.55;65.42
27144;BME280;14672;50.250;8.312;2023-12-22T06:46:57;97522.03;;;9.54;64.61
27144;BME280;14672;50.250;8.312;2023-12-22T06:49:22;97524.16;;;9.44;64.46
27144;BME280;14672;50.250;8.312;2023-12-22T06:51:51;97533.97;;;9.58;64.07
27144;BME280;14672;50.250;8.312;2023-12-22T06:54:17;97534.69;;;9.43;63.36
27144;BME280;14672;50.250;8.312;2023-12-22T06:56:43;97525.84;;;9.51;63.64
27144;BME280;14672;50.250;8.312;2023-12-22T06:59:11;97516.97;;;9.58;63.94
27144;BME280;14672;50.250;8.312;2023-12-22T07:01:37;97525.59;;;9.63;63.72
27144;BME280;14672;50.250;8.312;2023-12-22T07:04:04;97507.78;;;9.63;63.27
27144;BME280;14672;50.250;8.312;2023-12-22T07:06:32;97521.00;;;9.80;62.75
27144;BME280;14672;50.250;8.312;2023-12-22T07:11:50;97549.34;;;9.66;63.43
27144;BME280;14672;50.250;8.312;2023-12-22T07:14:17;97550.41;;;9.68;63.69
27144;BME280;14672;50.250;8.312;2023-12-22T07:16:43;97551.81;;;9.87;63.19
27144;BME280;14672;50.250;8.312;2023-12-22T07:19:09;97548.03;;;9.90;63.06
27144;BME280;14672;50.250;8.312;2023-12-22T07:21:35;97559.66;;;9.93;62.96
27144;BME280;14672;50.250;8.312;2023-12-22T07:24:01;97564.94;;;9.85;63.17
27144;BME280;14672;50.250;8.312;2023-12-22T07:26:27;97573.75;;;9.87;63.02
27144;BME280;14672;50.250;8.312;2023-12-22T07:28:53;97574.56;;;10.02;63.00
27144;BME280;14672;50.250;8.312;2023-12-22T07:31:19;97575.44;;;10.08;63.00
27144;BME280;14672;50.250;8.312;2023-12-22T07:33:45;97578.47;;;10.05;63.02
27144;BME280;14672;50.250;8.312;2023-12-22T07:36:14;97580.97;;;9.88;63.79
27144;BME280;14672;50.250;8.312;2023-12-22T07:38:40;97579.94;;;10.00;63.36
27144;BME280;14672;50.250;8.312;2023-12-22T07:41:06;97587.53;;;10.18;62.97
27144;BME280;14672;50.250;8.312;2023-12-22T07:43:31;97592.56;;;9.99;63.35
27144;BME280;14672;50.250;8.312;2023-12-22T07:45:57;97586.44;;;10.15;63.22
27144;BME280;14672;50.250;8.312;2023-12-22T07:48:23;97594.78;;;10.19;63.22
27144;BME280;14672;50.250;8.312;2023-12-22T07:50:51;97590.81;;;10.02;63.06
27144;BME280;14672;50.250;8.312;2023-12-22T07:53:17;97597.75;;;10.01;63.61
27144;BME280;14672;50.250;8.312;2023-12-22T07:55:43;97599.66;;;10.18;63.06
27144;BME280;14672;50.250;8.312;2023-12-22T07:58:09;97605.56;;;10.06;63.51
27144;BME280;14672;50.250;8.312;2023-12-22T08:00:36;97590.19;;;10.21;63.20
27144;BME280;14672;50.250;8.312;2023-12-22T08:03:03;97602.97;;;10.17;63.63
27144;BME280;14672;50.250;8.312;2023-12-22T08:05:28;97597.47;;;10.13;63.84
27144;BME280;14672;50.250;8.312;2023-12-22T08:07:55;97599.56;;;10.27;63.09
27144;BME280;14672;50.250;8.312;2023-12-22T08:10:21;97605.66;;;10.11;63.93
27144;BME280;14672;50.250;8.312;2023-12-22T08:12:47;97608.69;;;10.08;63.85
27144;BME280;14672;50.250;8.312;2023-12-22T08:15:13;97605.44;;;10.24;63.62
27144;BME280;14672;50.250;8.312;2023-12-22T08:17:51;97641.06;;;10.25;63.67
27144;BME280;14672;50.250;8.312;2023-12-22T08:20:21;97644.91;;;9.98;63.77
27144;BME280;14672;50.250;8.312;2023-12-22T08:22:48;97635.53;;;10.07;63.61
27144;BME280;14672;50.250;8.312;2023-12-22T08:25:14;97646.09;;;10.06;64.14
27144;BME280;14672;50.250;8.312;2023-12-22T08:27:40;97645.19;;;10.00;63.90
27144;BME280;14672;50.250;8.312;2023-12-22T08:30:09;97637.72;;;9.88;64.20
27144;BME280;14672;50.250;8.312;2023-12-22T08:32:35;97625.28;;;9.85;64.26
27144;BME280;14672;50.250;8.312;2023-12-22T08:35:01;97620.88;;;9.84;64.46
27144;BME280;14672;50.250;8.312;2023-12-22T08:37:26;97625.75;;;9.84;65.17
27144;BME280;14672;50.250;8.312;2023-12-22T08:39:52;97619.91;;;9.87;64.87
27144;BME280;14672;50.250;8.312;2023-12-22T08:42:18;97610.63;;;9.87;65.24
27144;BME280;14672;50.250;8.312;2023-12-22T08:44:44;97619.56;;;9.95;65.44
27144;BME280;14672;50.250;8.312;2023-12-22T08:47:10;97622.56;;;9.91;65.09
27144;BME280;14672;50.250;8.312;2023-12-22T08:49:35;97626.50;;;9.94;65.57
27144;BME280;14672;50.250;8.312;2023-12-22T08:52:01;97628.72;;;9.89;65.42
27144;BME280;14672;50.250;8.312;2023-12-22T08:54:30;97622.66;;;9.97;65.60
27144;BME280;14672;50.250;8.312;2023-12-22T08:56:56;97627.94;;;9.89;65.81
27144;BME280;14672;50.250;8.312;2023-12-22T08:59:21;97617.97;;;9.94;65.32
27144;BME280;14672;50.250;8.312;2023-12-22T09:01:48;97612.78;;;9.92;65.59
27144;BME280;14672;50.250;8.312;2023-12-22T09:04:13;97619.34;;;9.98;66.07
27144;BME280;14672;50.250;8.312;2023-12-22T09:06:40;97634.69;;;9.91;66.24
27144;BME280;14672;50.250;8.312;2023-12-22T09:09:06;97621.97;;;9.87;66.49
27144;BME280;14672;50.250;8.312;2023-12-22T09:11:33;97630.59;;;9.93;66.48
27144;BME280;14672;50.250;8.312;2023-12-22T09:13:58;97629.50;;;9.90;66.88
27144;BME280;14672;50.250;8.312;2023-12-22T09:16:24;97637.34;;;9.95;66.73
27144;BME280;14672;50.250;8.312;2023-12-22T09:18:53;97629.00;;;9.91;66.92
27144;BME280;14672;50.250;8.312;2023-12-22T09:21:19;97630.84;;;9.80;67.90
27144;BME280;14672;50.250;8.312;2023-12-22T09:23:46;97634.59;;;9.86;67.57
27144;BME280;14672;50.250;8.312;2023-12-22T09:26:13;97638.31;;;9.92;67.26
27144;BME280;14672;50.250;8.312;2023-12-22T09:28:40;97639.28;;;9.89;68.50
27144;BME280;14672;50.250;8.312;2023-12-22T09:31:10;97633.19;;;9.81;69.48
27144;BME280;14672;50.250;8.312;2023-12-22T09:33:40;97633.19;;;9.81;68.95
27144;BME280;14672;50.250;8.312;2023-12-22T09:36:07;97643.56;;;9.84;68.44
27144;BME280;14672;50.250;8.312;2023-12-22T09:38:36;97634.59;;;9.86;68.09
27144;BME280;14672;50.250;8.312;2023-12-22T09:41:02;97626.16;;;9.91;68.22
27144;BME280;14672;50.250;8.312;2023-12-22T09:43:35;97620.94;;;9.99;68.15
27144;BME280;14672;50.250;8.312;2023-12-22T09:46:02;97618.97;;;10.05;67.75
27144;BME280;14672;50.250;8.312;2023-12-22T09:48:30;97630.72;;;10.13;68.12
27144;BME280;14672;50.250;8.312;2023-12-22T09:51:00;97625.84;;;10.13;67.70
27144;BME280;14672;50.250;8.312;2023-12-22T09:53:28;97612.09;;;9.97;68.35
27144;BME280;14672;50.250;8.312;2023-12-22T09:55:57;97608.09;;;10.04;68.32
27144;BME280;14672;50.250;8.312;2023-12-22T09:58:23;97609.91;;;10.16;68.11
27144;BME280;14672;50.250;8.312;2023-12-22T10:00:49;97619.94;;;10.26;68.14
27144;BME280;14672;50.250;8.312;2023-12-22T10:03:17;97606.53;;;10.26;68.39
27144;BME280;14672;50.250;8.312;2023-12-22T10:05:44;97591.44;;;10.20;68.48
27144;BME280;14672;50.250;8.312;2023-12-22T10:08:14;97586.94;;;10.28;68.59
27144;BME280;14672;50.250;8.312;2023-12-22T10:10:41;97594.38;;;10.26;68.35
27144;BME280;14672;50.250;8.312;2023-12-22T10:13:08;97581.19;;;10.38;68.20
27144;BME280;14672;50.250;8.312;2023-12-22T10:15:39;97583.72;;;10.35;68.28
27144;BME280;14672;50.250;8.312;2023-12-22T10:18:09;97567.97;;;10.34;67.99
27144;BME280;14672;50.250;8.312;2023-12-22T10:20:35;97578.44;;;10.43;67.63
27144;BME280;14672;50.250;8.312;2023-12-22T10:23:02;97567.56;;;10.42;67.82
27144;BME280;14672;50.250;8.312;2023-12-22T10:25:28;97564.06;;;10.47;68.12
27144;BME280;14672;50.250;8.312;2023-12-22T10:27:58;97571.19;;;10.42;68.42
27144;BME280;14672;50.250;8.312;2023-12-22T10:30:24;97557.28;;;10.44;67.62
27144;BME280;14672;50.250;8.312;2023-12-22T10:32:53;97548.56;;;10.48;67.83
27144;BME280;14672;50.250;8.312;2023-12-22T10:35:23;97550.72;;;10.53;67.54
27144;BME280;14672;50.250;8.312;2023-12-22T10:37:48;97529.78;;;10.50;67.58
27144;BME280;14672;50.250;8.312;2023-12-22T10:40:18;97537.22;;;10.48;67.88
27144;BME280;14672;50.250;8.312;2023-12-22T10:42:44;97534.84;;;10.61;67.55
27144;BME280;14672;50.250;8.312;2023-12-22T10:45:10;97527.03;;;10.56;67.90
27144;BME280;14672;50.250;8.312;2023-12-22T10:47:38;97506.75;;;10.63;67.56
27144;BME280;14672;50.250;8.312;2023-12-22T10:50:06;97502.94;;;10.66;67.84
27144;BME280;14672;50.250;8.312;2023-12-22T10:52:32;97492.34;;;10.66;67.58
27144;BME280;14672;50.250;8.312;2023-12-22T10:55:00;97501.19;;;10.54;68.17
27144;BME280;14672;50.250;8.312;2023-12-22T10:57:28;97487.38;;;10.61;67.85
27144;BME280;14672;50.250;8.312;2023-12-22T10:59:56;97487.16;;;10.65;67.53
27144;BME280;14672;50.250;8.312;2023-12-22T11:02:27;97483.50;;;10.79;67.35
27144;BME280;14672;50.250;8.312;2023-12-22T11:05:02;97496.84;;;10.73;67.37
27144;BME280;14672;50.250;8.312;2023-12-22T11:07:34;97499.78;;;10.64;68.03
27144;BME280;14672;50.250;8.312;2023-12-22T11:10:07;97489.25;;;10.84;67.58
27144;BME280;14672;50.250;8.312;2023-12-22T11:12:35;97478.38;;;10.83;67.75
27144;BME280;14672;50.250;8.312;2023-12-22T11:15:03;97487.84;;;10.74;68.21
27144;BME280;14672;50.250;8.312;2023-12-22T11:17:33;97469.59;;;10.81;68.35
27144;BME280;14672;50.250;8.312;2023-12-22T11:19:59;97471.84;;;10.77;68.43
27144;BME280;14672;50.250;8.312;2023-12-22T11:22:25;97481.22;;;10.83;67.97
27144;BME280;14672;50.250;8.312;2023-12-22T11:24:51;97465.84;;;10.90;67.81
27144;BME280;14672;50.250;8.312;2023-12-22T11:27:21;97461.91;;;10.87;67.71
27144;BME280;14672;50.250;8.312;2023-12-22T11:29:50;97455.97;;;10.85;68.10
27144;BME280;14672;50.250;8.312;2023-12-22T11:32:18;97465.47;;;10.82;68.26
27144;BME280;14672;50.250;8.312;2023-12-22T11:34:46;97451.09;;;10.71;68.54
27144;BME280;14672;50.250;8.312;2023-12-22T11:37:14;97446.28;;;10.77;69.11
27144;BME280;14672;50.250;8.312;2023-12-22T11:39:44;97442.97;;;10.78;69.01
27144;BME280;14672;50.250;8.312;2023-12-22T11:42:18;97441.09;;;10.75;69.51
27144;BME280;14672;50.250;8.312;2023-12-22T11:44:45;97447.13;;;10.83;69.51
27144;BME280;14672;50.250;8.312;2023-12-22T11:47:11;97432.94;;;10.83;69.58
27144;BME280;14672;50.250;8.312;2023-12-22T11:49:39;97438.34;;;10.81;69.96
27144;BME280;14672;50.250;8.312;2023-12-22T11:52:13;97430.19;;;10.89;70.62
27144;BME280;14672;50.250;8.312;2023-12-22T11:54:47;97431.66;;;10.84;69.67
27144;BME280;14672;50.250;8.312;2023-12-22T12:00:10;97425.63;;;10.76;70.83
27144;BME280;14672;50.250;8.312;2023-12-22T12:02:57;97411.97;;;10.60;71.14
27144;BME280;14672;50.250;8.312;2023-12-22T12:05:23;97400.06;;;10.76;71.27
27144;BME280;14672;50.250;8.312;2023-12-22T12:07:49;97424.72;;;10.85;71.08
27144;BME280;14672;50.250;8.312;2023-12-22T12:13:09;97411.78;;;10.84;71.91
27144;BME280;14672;50.250;8.312;2023-12-22T12:15:38;97407.53;;;10.74;71.59
27144;BME280;14672;50.250;8.312;2023-12-22T12:18:09;97409.03;;;10.90;71.26
27144;BME280;14672;50.250;8.312;2023-12-22T12:20:35;97412.00;;;10.80;71.65
27144;BME280;14672;50.250;8.312;2023-12-22T12:23:01;97416.06;;;10.94;71.26
27144;BME280;14672;50.250;8.312;2023-12-22T12:25:32;97426.28;;;10.86;71.58
27144;BME280;14672;50.250;8.312;2023-12-22T12:28:08;97413.91;;;10.89;71.46
27144;BME280;14672;50.250;8.312;2023-12-22T12:30:36;97417.88;;;10.77;71.77
27144;BME280;14672;50.250;8.312;2023-12-22T12:33:10;97401.56;;;10.92;72.59
27144;BME280;14672;50.250;8.312;2023-12-22T12:35:40;97414.50;;;10.93;71.24
27144;BME280;14672;50.250;8.312;2023-12-22T12:38:09;97411.22;;;10.80;71.79
27144;BME280;14672;50.250;8.312;2023-12-22T12:40:39;97411.09;;;10.89;71.66
27144;BME280;14672;50.250;8.312;2023-12-22T12:43:05;97398.72;;;10.92;71.70
27144;BME280;14672;50.250;8.312;2023-12-22T12:45:31;97401.47;;;11.07;71.37
27144;BME280;14672;50.250;8.312;2023-12-22T12:47:58;97398.56;;;11.01;71.73
27144;BME280;14672;50.250;8.312;2023-12-22T12:50:25;97400.16;;;11.02;71.37
27144;BME280;14672;50.250;8.312;2023-12-22T12:52:52;97424.00;;;10.90;71.82
27144;BME280;14672;50.250;8.312;2023-12-22T12:55:25;97415.50;;;11.10;72.08
27144;BME280;14672;50.250;8.312;2023-12-22T12:57:55;97414.63;;;11.04;72.91
27144;BME280;14672;50.250;8.312;2023-12-22T13:00:29;97427.63;;;11.11;72.76
27144;BME280;14672;50.250;8.312;2023-12-22T13:03:05;97431.69;;;11.04;73.54
27144;BME280;14672;50.250;8.312;2023-12-22T13:05:32;97424.28;;;11.12;73.25
27144;BME280;14672;50.250;8.312;2023-12-22T13:08:08;97432.47;;;11.25;73.42
27144;BME280;14672;50.250;8.312;2023-12-22T13:10:34;97425.91;;;11.19;73.41
27144;BME280;14672;50.250;8.312;2023-12-22T13:13:00;97420.88;;;11.28;73.12
27144;BME280;14672;50.250;8.312;2023-12-22T13:15:26;97421.56;;;11.23;73.10
27144;BME280;14672;50.250;8.312;2023-12-22T13:17:52;97426.91;;;11.36;72.81
27144;BME280;14672;50.250;8.312;2023-12-22T13:20:18;97430.63;;;11.22;72.90